createdAt,value
2017-11-11T00:01:25.078Z,77.70
2017-11-11T00:03:51.504Z,67.00
2017-11-11T00:06:18.665Z,87.90
2017-11-11T00:08:45.091Z,73.40
2017-11-11T00:11:11.534Z,76.17
2017-11-11T00:13:37.964Z,82.97
2017-11-11T00:16:04.395Z,81.67
2017-11-11T00:18:30.839Z,76.37
2017-11-11T00:20:57.272Z,82.40
2017-11-11T00:23:24.531Z,75.87
2017-11-11T00:25:50.961Z,85.20
2017-11-11T00:28:17.388Z,80.80
2017-11-11T00:30:43.830Z,81.30
2017-11-11T00:33:10.155Z,72.63
2017-11-11T00:35:36.589Z,74.80
2017-11-11T00:38:03.032Z,75.00
2017-11-11T00:40:30.180Z,72.70
2017-11-11T00:42:56.613Z,70.27
2017-11-11T00:45:23.052Z,69.93
2017-11-11T00:47:49.488Z,75.33
2017-11-11T00:50:15.914Z,75.70
2017-11-11T00:52:42.350Z,82.43
2017-11-11T00:55:08.782Z,65.53
2017-11-11T00:57:35.218Z,76.00
2017-11-11T01:00:01.738Z,75.67
2017-11-11T01:02:28.189Z,70.67
2017-11-11T01:04:54.623Z,70.93
2017-11-11T01:07:21.068Z,84.70
2017-11-11T01:09:47.495Z,79.77
2017-11-11T01:12:13.928Z,81.03
2017-11-11T01:14:40.374Z,85.60
2017-11-11T01:17:06.806Z,80.53
2017-11-11T01:19:33.232Z,81.03
2017-11-11T01:21:59.671Z,70.23
2017-11-11T01:24:26.101Z,86.53
2017-11-11T01:26:52.546Z,78.50
2017-11-11T01:29:18.971Z,77.53
2017-11-11T01:31:45.508Z,78.60
2017-11-11T01:34:11.923Z,77.40
2017-11-11T01:36:39.099Z,88.03
2017-11-11T01:39:05.529Z,71.53
2017-11-11T01:41:31.972Z,69.83
2017-11-11T01:43:58.331Z,63.07
2017-11-11T01:46:24.730Z,61.47
2017-11-11T01:48:51.166Z,65.00
2017-11-11T01:51:17.601Z,73.80
2017-11-11T01:53:44.812Z,64.33
2017-11-11T01:56:11.285Z,62.07
2017-11-11T01:58:37.826Z,66.60
2017-11-11T02:01:04.261Z,65.57
2017-11-11T02:03:30.595Z,70.37
2017-11-11T02:05:57.046Z,62.23
2017-11-11T02:08:23.462Z,67.03
2017-11-11T02:10:50.719Z,65.40
2017-11-11T02:13:17.159Z,66.00
2017-11-11T02:15:43.572Z,57.87
2017-11-11T02:20:41.165Z,67.50
2017-11-11T02:23:07.708Z,65.03
2017-11-11T02:25:34.137Z,71.03
2017-11-11T02:28:00.580Z,66.60
2017-11-11T02:30:27.006Z,64.60
2017-11-11T02:32:53.339Z,63.10
2017-11-11T02:35:19.782Z,57.10
2017-11-11T02:37:46.208Z,55.40
2017-11-11T02:40:12.643Z,57.40
2017-11-11T02:42:39.080Z,57.50
2017-11-11T02:45:05.520Z,58.03
2017-11-11T02:47:32.775Z,59.97
2017-11-11T02:49:59.200Z,55.90
2017-11-11T02:52:25.620Z,48.50
2017-11-11T02:54:52.063Z,53.53
2017-11-11T02:57:18.508Z,52.40
2017-11-11T02:59:44.952Z,46.20
2017-11-11T03:02:11.394Z,59.80
2017-11-11T03:04:38.629Z,49.70
2017-11-11T03:07:05.071Z,53.60
2017-11-11T03:09:31.497Z,51.10
2017-11-11T03:11:57.940Z,54.43
2017-11-11T03:14:24.265Z,48.90
2017-11-11T03:16:50.707Z,50.47
2017-11-11T03:19:17.033Z,48.77
2017-11-11T03:21:44.323Z,45.57
2017-11-11T03:24:10.832Z,52.27
2017-11-11T03:26:37.234Z,51.93
2017-11-11T03:29:03.676Z,51.87
2017-11-11T03:31:30.135Z,51.30
2017-11-11T03:33:56.569Z,48.70
2017-11-11T03:36:22.952Z,48.57
2017-11-11T03:38:50.259Z,53.33
2017-11-11T03:41:16.619Z,54.67
2017-11-11T03:43:43.129Z,53.40
2017-11-11T03:46:09.556Z,57.23
2017-11-11T03:48:35.990Z,60.80
2017-11-11T03:51:02.370Z,56.53
2017-11-11T03:53:28.757Z,52.23
2017-11-11T03:55:55.906Z,48.13
2017-11-11T03:58:22.299Z,53.53
2017-11-11T04:00:48.688Z,50.63
2017-11-11T04:03:15.108Z,54.77
2017-11-11T04:05:41.543Z,50.23
2017-11-11T04:08:07.987Z,47.93
2017-11-11T04:10:34.352Z,51.73
2017-11-11T04:13:01.573Z,50.80
2017-11-11T04:15:27.902Z,55.80
2017-11-11T04:17:54.341Z,47.67
2017-11-11T04:20:20.766Z,54.50
2017-11-11T04:22:47.201Z,44.57
2017-11-11T04:25:13.643Z,51.70
2017-11-11T04:27:40.069Z,44.20
2017-11-11T04:30:07.204Z,46.20
2017-11-11T04:32:33.554Z,48.77
2017-11-11T04:34:59.988Z,44.23
2017-11-11T04:37:26.450Z,43.97
2017-11-11T04:39:52.857Z,41.23
2017-11-11T04:42:19.294Z,45.80
2017-11-11T04:44:45.737Z,42.87
2017-11-11T04:47:12.901Z,38.67
2017-11-11T04:49:39.314Z,43.83
2017-11-11T04:52:05.757Z,40.07
2017-11-11T04:54:32.182Z,45.07
2017-11-11T04:56:58.621Z,44.40
2017-11-11T04:59:24.950Z,39.73
2017-11-11T05:01:51.487Z,42.50
2017-11-11T05:04:18.535Z,40.90
2017-11-11T05:06:44.940Z,40.53
2017-11-11T05:09:11.376Z,42.37
2017-11-11T05:11:37.840Z,43.80
2017-11-11T05:14:04.207Z,38.33
2017-11-11T05:16:30.607Z,43.20
2017-11-11T05:18:57.061Z,45.20
2017-11-11T05:21:24.193Z,40.50
2017-11-11T05:23:50.649Z,37.70
2017-11-11T05:26:17.086Z,40.13
2017-11-11T05:28:43.517Z,45.50
2017-11-11T05:31:09.904Z,46.13
2017-11-11T05:33:36.334Z,46.03
2017-11-11T05:36:02.812Z,43.07
2017-11-11T05:38:29.930Z,44.57
2017-11-11T05:40:56.325Z,44.63
2017-11-11T05:43:22.691Z,40.37
2017-11-11T05:45:49.052Z,47.97
2017-11-11T05:48:15.487Z,40.90
2017-11-11T05:50:41.922Z,43.80
2017-11-11T05:53:08.357Z,34.83
2017-11-11T05:55:35.452Z,42.30
2017-11-11T05:58:01.857Z,46.67
2017-11-11T06:00:28.275Z,50.20
2017-11-11T06:02:54.719Z,50.23
2017-11-11T06:05:21.144Z,54.57
2017-11-11T06:07:47.599Z,37.47
2017-11-11T06:10:14.013Z,59.23
2017-11-11T06:12:41.302Z,52.73
2017-11-11T06:15:07.723Z,52.87
2017-11-11T06:17:34.137Z,45.37
2017-11-11T06:20:00.677Z,40.00
2017-11-11T06:22:27.006Z,42.17
2017-11-11T06:24:53.441Z,50.33
2017-11-11T06:27:19.876Z,49.87
2017-11-11T06:29:47.137Z,56.10
2017-11-11T06:32:13.564Z,53.13
2017-11-11T06:34:39.900Z,50.07
2017-11-11T06:37:06.341Z,60.80
2017-11-11T06:39:32.774Z,46.40
2017-11-11T06:41:59.135Z,45.80
2017-11-11T06:44:25.646Z,40.00
2017-11-11T06:46:52.760Z,47.77
2017-11-11T06:49:19.203Z,54.47
2017-11-11T06:51:45.652Z,40.73
2017-11-11T06:54:12.095Z,35.23
2017-11-11T06:56:38.536Z,39.90
2017-11-11T06:59:04.932Z,38.57
2017-11-11T07:01:31.364Z,40.40
2017-11-11T07:03:58.558Z,37.30
2017-11-11T07:06:24.989Z,42.63
2017-11-11T07:08:51.426Z,75.13
2017-11-11T07:11:17.787Z,77.30
2017-11-11T07:13:44.184Z,83.93
2017-11-11T07:16:10.516Z,63.47
2017-11-11T07:18:36.832Z,60.63
2017-11-11T07:21:04.103Z,70.43
2017-11-11T07:23:30.519Z,60.73
2017-11-11T07:25:56.961Z,49.80
2017-11-11T07:28:23.416Z,61.83
2017-11-11T07:30:49.850Z,53.60
2017-11-11T07:33:16.284Z,46.77
2017-11-11T07:35:42.722Z,43.97
2017-11-11T07:38:09.860Z,54.57
2017-11-11T07:40:36.297Z,47.70
2017-11-11T07:43:03.232Z,73.63
2017-11-11T07:45:29.778Z,57.10
2017-11-11T07:47:56.213Z,72.57
2017-11-11T07:50:22.752Z,72.33
2017-11-11T07:52:49.076Z,72.90
2017-11-11T07:55:15.518Z,45.03
2017-11-11T07:57:41.951Z,50.87
2017-11-11T08:00:08.469Z,46.23
2017-11-11T08:02:35.436Z,51.30
2017-11-11T08:05:01.870Z,51.27
2017-11-11T08:07:28.255Z,60.67
2017-11-11T08:09:54.751Z,51.87
2017-11-11T08:12:21.091Z,58.47
2017-11-11T08:14:47.512Z,62.33
2017-11-11T08:17:13.932Z,55.63
2017-11-11T08:19:40.377Z,39.00
2017-11-11T08:22:06.810Z,41.43
2017-11-11T08:24:33.356Z,42.40
2017-11-11T08:26:59.825Z,49.93
2017-11-11T08:29:26.356Z,48.37
2017-11-11T08:31:52.764Z,51.77
2017-11-11T08:34:19.121Z,48.27
2017-11-11T08:36:45.521Z,38.00
2017-11-11T08:39:11.967Z,37.57
2017-11-11T08:41:38.428Z,39.00
2017-11-11T08:44:04.872Z,40.03
2017-11-11T08:46:31.875Z,40.90
2017-11-11T08:48:58.311Z,72.27
2017-11-11T08:51:25.204Z,38.93
2017-11-11T08:53:51.692Z,37.47
2017-11-11T08:56:18.125Z,34.63
2017-11-11T08:58:44.670Z,56.30
2017-11-11T09:01:11.304Z,56.10
2017-11-11T09:03:37.737Z,45.30
2017-11-11T09:06:04.055Z,41.10
2017-11-11T09:08:30.439Z,43.33
2017-11-11T09:10:56.941Z,53.97
2017-11-11T09:13:23.392Z,48.87
2017-11-11T09:15:49.808Z,49.87
2017-11-11T09:18:16.217Z,59.00
2017-11-11T09:20:42.779Z,70.30
2017-11-11T09:23:09.419Z,50.80
2017-11-11T09:25:35.795Z,70.80
2017-11-11T09:28:02.153Z,64.43
2017-11-11T09:30:28.618Z,62.40
2017-11-11T09:32:55.025Z,56.53
2017-11-11T09:35:21.511Z,64.03
2017-11-11T09:37:47.928Z,57.67
2017-11-11T09:40:14.403Z,63.73
2017-11-11T09:42:40.794Z,59.87
2017-11-11T09:45:07.126Z,51.00
2017-11-11T09:47:33.497Z,56.93
2017-11-11T09:50:00.018Z,52.20
2017-11-11T09:52:26.541Z,58.83
2017-11-11T09:54:53.070Z,58.80
2017-11-11T09:57:19.941Z,62.43
2017-11-11T09:59:46.423Z,43.73
2017-11-11T10:02:12.886Z,42.97
2017-11-11T10:04:39.730Z,44.80
2017-11-11T10:07:06.164Z,61.53
2017-11-11T10:09:32.600Z,77.70
2017-11-11T10:11:59.238Z,77.43
2017-11-11T10:14:25.878Z,59.40
2017-11-11T10:16:52.313Z,37.20
2017-11-11T10:19:18.952Z,40.77
2017-11-11T10:21:45.423Z,39.70
2017-11-11T10:24:11.770Z,49.83
2017-11-11T10:26:38.566Z,56.10
2017-11-11T10:29:05.007Z,48.30
2017-11-11T10:31:31.543Z,49.67
2017-11-11T10:33:58.144Z,59.77
2017-11-11T10:36:24.549Z,55.10
2017-11-11T10:38:51.672Z,49.47
2017-11-11T10:41:18.195Z,55.53
2017-11-11T10:43:44.640Z,59.50
2017-11-11T10:46:11.557Z,62.63
2017-11-11T10:48:38.000Z,59.90
2017-11-11T10:51:04.520Z,66.93
2017-11-11T10:53:30.920Z,54.83
2017-11-11T10:55:57.602Z,67.50
2017-11-11T10:58:24.045Z,53.60
2017-11-11T11:00:50.735Z,52.73
2017-11-11T11:03:17.243Z,48.63
2017-11-11T11:05:43.701Z,46.17
2017-11-11T11:08:10.368Z,53.23
2017-11-11T11:10:36.861Z,57.93
2017-11-11T11:13:03.280Z,52.60
2017-11-11T11:15:29.827Z,45.30
2017-11-11T11:17:56.187Z,53.40
2017-11-11T11:20:22.584Z,45.47
2017-11-11T11:22:49.027Z,39.53
2017-11-11T11:25:15.536Z,46.00
2017-11-11T11:27:41.983Z,42.43
2017-11-11T11:30:08.533Z,52.17
2017-11-11T11:32:34.903Z,52.73
2017-11-11T11:35:01.406Z,67.07
2017-11-11T11:37:27.836Z,85.03
2017-11-11T11:39:54.377Z,90.13
2017-11-11T11:42:20.803Z,60.60
2017-11-11T11:44:47.260Z,46.93
2017-11-11T11:47:14.124Z,52.07
2017-11-11T11:49:40.588Z,54.47
2017-11-11T11:52:06.993Z,49.93
2017-11-11T11:54:33.405Z,49.23
2017-11-11T11:56:59.879Z,42.63
2017-11-11T11:59:26.297Z,35.50
2017-11-11T12:01:52.792Z,36.47
2017-11-11T12:04:19.227Z,32.80
2017-11-11T12:06:45.560Z,28.57
2017-11-11T12:09:12.017Z,30.23
2017-11-11T12:11:38.521Z,25.13
2017-11-11T12:14:04.967Z,25.83
2017-11-11T12:16:31.402Z,25.83
2017-11-11T12:18:57.836Z,26.90
2017-11-11T12:21:24.172Z,25.40
2017-11-11T12:23:50.603Z,29.50
2017-11-11T12:26:17.028Z,25.93
2017-11-11T12:28:43.545Z,34.60
2017-11-11T12:31:10.124Z,29.83
2017-11-11T12:33:36.550Z,22.30
2017-11-11T12:36:02.984Z,24.10
2017-11-11T12:38:29.433Z,30.17
2017-11-11T12:40:55.954Z,23.53
2017-11-11T12:43:22.506Z,26.73
2017-11-11T12:45:48.864Z,37.37
2017-11-11T12:48:15.367Z,28.60
2017-11-11T12:50:42.347Z,31.37
2017-11-11T12:53:08.750Z,22.50
2017-11-11T12:55:35.178Z,34.20
2017-11-11T12:58:01.621Z,25.10
2017-11-11T13:00:28.057Z,23.90
2017-11-11T13:02:54.484Z,20.40
2017-11-11T13:05:20.914Z,25.70
2017-11-11T13:07:48.073Z,15.60
2017-11-11T13:10:14.612Z,14.90
2017-11-11T13:12:41.047Z,15.07
2017-11-11T13:15:07.491Z,11.93
2017-11-11T13:17:33.906Z,23.23
2017-11-11T13:20:00.341Z,19.53
2017-11-11T13:22:26.780Z,14.43
2017-11-11T13:24:54.000Z,13.40
2017-11-11T13:27:20.403Z,18.80
2017-11-11T13:29:46.908Z,17.70
2017-11-11T13:32:13.340Z,17.07
2017-11-11T13:34:39.793Z,23.23
2017-11-11T13:37:06.169Z,20.73
2017-11-11T13:39:32.629Z,34.90
2017-11-11T13:41:59.671Z,19.87
2017-11-11T13:44:26.121Z,24.20
2017-11-11T13:46:52.558Z,29.00
2017-11-11T13:49:18.928Z,20.87
2017-11-11T13:51:45.434Z,24.30
2017-11-11T13:54:11.860Z,26.00
2017-11-11T13:56:38.295Z,19.20
2017-11-11T13:59:05.582Z,19.70
2017-11-11T14:01:32.094Z,19.30
2017-11-11T14:03:58.529Z,21.23
2017-11-11T14:06:24.957Z,29.47
2017-11-11T14:08:51.390Z,22.67
2017-11-11T14:11:17.824Z,26.83
2017-11-11T14:13:44.248Z,34.37
2017-11-11T14:16:11.309Z,42.53
2017-11-11T14:18:37.840Z,47.63
2017-11-11T14:21:04.285Z,64.47
2017-11-11T14:23:30.725Z,44.23
2017-11-11T14:25:57.151Z,53.07
2017-11-11T14:28:23.586Z,49.37
2017-11-11T14:30:50.019Z,48.63
2017-11-11T14:33:17.170Z,48.13
2017-11-11T14:35:43.503Z,61.30
2017-11-11T14:38:09.939Z,37.03
2017-11-11T14:40:36.333Z,40.90
2017-11-11T14:43:02.806Z,42.93
2017-11-11T14:45:29.250Z,60.00
2017-11-11T14:47:55.781Z,55.40
2017-11-11T14:50:22.830Z,48.63
2017-11-11T14:52:49.200Z,52.67
2017-11-11T14:55:15.704Z,61.87
2017-11-11T14:57:42.132Z,53.67
2017-11-11T15:00:08.574Z,52.00
2017-11-11T15:02:34.900Z,33.67
2017-11-11T15:05:01.333Z,53.30
2017-11-11T15:07:27.777Z,63.47
2017-11-11T15:09:54.202Z,43.40
2017-11-11T15:12:20.656Z,44.23
2017-11-11T15:14:46.986Z,42.97
2017-11-11T15:17:13.461Z,43.63
2017-11-11T15:19:39.951Z,34.20
2017-11-11T15:22:06.320Z,36.53
2017-11-11T15:24:33.555Z,27.00
2017-11-11T15:27:00.079Z,26.10
2017-11-11T15:29:26.500Z,38.50
2017-11-11T15:31:52.831Z,69.63
2017-11-11T15:34:19.267Z,80.17
2017-11-11T15:36:45.709Z,79.30
2017-11-11T15:39:12.136Z,92.90
2017-11-11T15:41:39.288Z,55.50
2017-11-11T15:44:05.730Z,44.07
2017-11-11T15:46:32.157Z,37.47
2017-11-11T15:48:58.609Z,31.80
2017-11-11T15:51:25.035Z,32.83
2017-11-11T15:53:51.461Z,36.10
2017-11-11T15:56:17.905Z,33.57
2017-11-11T15:58:44.945Z,34.37
2017-11-11T16:01:11.352Z,39.03
2017-11-11T16:03:37.838Z,52.80
2017-11-11T16:06:04.190Z,59.00
2017-11-11T16:08:30.695Z,54.53
2017-11-11T16:10:57.119Z,53.80
2017-11-11T16:13:23.556Z,44.43
2017-11-11T16:15:50.708Z,47.83
2017-11-11T16:18:17.242Z,39.77
2017-11-11T16:20:43.684Z,41.53
2017-11-11T16:23:10.109Z,47.43
2017-11-11T16:25:36.545Z,65.57
2017-11-11T16:28:02.993Z,74.10
2017-11-11T16:30:29.415Z,87.20
2017-11-11T16:32:56.669Z,92.73
2017-11-11T16:35:23.002Z,69.23
2017-11-11T16:37:49.444Z,85.33
2017-11-11T16:40:15.871Z,96.90
2017-11-11T16:42:42.314Z,101.00
2017-11-11T16:45:09.059Z,106.03
2017-11-11T16:47:35.482Z,82.03
2017-11-11T16:50:02.635Z,104.57
2017-11-11T16:52:29.067Z,98.90
2017-11-11T16:54:55.511Z,99.23
2017-11-11T16:57:21.937Z,110.00
2017-11-11T16:59:48.365Z,118.40
2017-11-11T17:02:14.815Z,134.50
2017-11-11T17:04:41.242Z,118.83
2017-11-11T17:07:08.503Z,125.47
2017-11-11T17:09:34.930Z,130.20
2017-11-11T17:12:01.365Z,104.97
2017-11-11T17:14:27.809Z,102.50
2017-11-11T17:16:54.175Z,105.07
2017-11-11T17:19:20.668Z,103.73
2017-11-11T17:21:47.001Z,104.73
2017-11-11T17:24:14.264Z,113.47
2017-11-11T17:26:40.693Z,116.00
2017-11-11T17:29:07.135Z,126.77
2017-11-11T17:31:33.670Z,123.30
2017-11-11T17:34:00.104Z,163.77
2017-11-11T17:36:26.538Z,110.83
2017-11-11T17:38:52.966Z,103.47
2017-11-11T17:41:20.204Z,106.07
2017-11-11T17:43:46.654Z,107.03
2017-11-11T17:46:12.968Z,121.90
2017-11-11T17:48:39.428Z,109.53
2017-11-11T17:51:05.792Z,99.10
2017-11-11T17:53:32.188Z,95.90
2017-11-11T17:55:58.633Z,82.90
2017-11-11T17:58:25.878Z,87.03
2017-11-11T18:00:52.322Z,94.63
2017-11-11T18:03:18.771Z,96.00
2017-11-11T18:05:45.180Z,99.57
2017-11-11T18:08:11.585Z,97.97
2017-11-11T18:10:38.049Z,96.37
2017-11-11T18:13:04.484Z,99.43
2017-11-11T18:15:31.750Z,106.20
2017-11-11T18:17:58.112Z,107.63
2017-11-11T18:20:24.465Z,113.53
2017-11-11T18:22:50.840Z,133.30
2017-11-11T18:25:17.389Z,112.53
2017-11-11T18:27:43.817Z,102.93
2017-11-11T18:30:10.253Z,93.77
2017-11-11T18:32:37.510Z,98.40
2017-11-11T18:35:03.933Z,100.13
2017-11-11T18:37:30.320Z,107.33
2017-11-11T18:39:56.799Z,105.50
2017-11-11T18:42:23.237Z,104.60
2017-11-11T18:44:49.860Z,97.00
2017-11-11T18:47:16.315Z,107.47
2017-11-11T18:49:43.575Z,113.80
2017-11-11T18:52:09.968Z,111.67
2017-11-11T18:54:36.433Z,95.00
2017-11-11T18:57:02.877Z,115.50
2017-11-11T18:59:29.302Z,97.93
2017-11-11T19:01:55.747Z,112.20
2017-11-11T19:04:22.172Z,125.40
2017-11-11T19:06:49.282Z,119.27
2017-11-11T19:09:15.772Z,120.47
2017-11-11T19:11:42.135Z,111.27
2017-11-11T19:14:08.636Z,113.00
2017-11-11T19:16:35.082Z,119.47
2017-11-11T19:19:01.497Z,125.07
2017-11-11T19:21:27.941Z,119.10
2017-11-11T19:23:55.185Z,121.10
2017-11-11T19:26:21.621Z,109.40
2017-11-11T19:28:48.055Z,116.83
2017-11-11T19:31:14.423Z,88.67
2017-11-11T19:33:40.934Z,97.80
2017-11-11T19:36:07.362Z,107.47
2017-11-11T19:38:33.803Z,113.50
2017-11-11T19:41:01.066Z,120.53
2017-11-11T19:43:27.502Z,104.70
2017-11-11T19:45:53.917Z,111.10
2017-11-11T19:48:20.352Z,98.57
2017-11-11T19:50:46.787Z,88.20
2017-11-11T19:53:13.220Z,109.40
2017-11-11T19:55:39.758Z,112.47
2017-11-11T19:58:06.807Z,102.37
2017-11-11T20:00:33.270Z,97.43
2017-11-11T20:02:59.787Z,95.90
2017-11-11T20:05:26.213Z,95.80
2017-11-11T20:07:52.656Z,100.23
2017-11-11T20:10:19.091Z,106.93
2017-11-11T20:12:45.629Z,102.57
2017-11-11T20:15:12.669Z,104.03
2017-11-11T20:17:39.112Z,98.20
2017-11-11T20:20:05.539Z,115.60
2017-11-11T20:22:31.974Z,97.40
2017-11-11T20:24:58.347Z,101.53
2017-11-11T20:27:24.740Z,110.37
2017-11-11T20:29:51.185Z,93.33
2017-11-11T20:32:18.327Z,102.00
2017-11-11T20:34:44.769Z,94.80
2017-11-11T20:37:11.196Z,99.87
2017-11-11T20:39:37.630Z,96.63
2017-11-11T20:42:04.065Z,97.30
2017-11-11T20:44:30.917Z,88.63
2017-11-11T20:46:57.344Z,78.67
2017-11-11T20:49:24.606Z,72.10
2017-11-11T20:51:51.033Z,72.97
2017-11-11T20:54:17.494Z,70.83
2017-11-11T20:56:43.902Z,81.87
2017-11-11T20:59:10.337Z,80.07
2017-11-11T21:01:36.706Z,72.03
2017-11-11T21:04:03.046Z,83.40
2017-11-11T21:06:30.261Z,76.87
2017-11-11T21:08:56.698Z,82.40
2017-11-11T21:11:23.133Z,72.30
2017-11-11T21:13:49.494Z,75.20
2017-11-11T21:16:16.005Z,77.43
2017-11-11T21:18:42.367Z,76.07
2017-11-11T21:21:08.760Z,73.53
2017-11-11T21:23:36.015Z,78.60
2017-11-11T21:26:02.459Z,92.53
2017-11-11T21:28:28.884Z,78.23
2017-11-11T21:30:55.933Z,75.63
2017-11-11T21:33:22.335Z,79.57
2017-11-11T21:35:48.808Z,85.30
2017-11-11T21:38:15.266Z,77.60
2017-11-11T21:40:42.323Z,69.93
2017-11-11T21:43:08.831Z,76.00
2017-11-11T21:45:35.287Z,78.47
2017-11-11T21:48:01.803Z,74.00
2017-11-11T21:50:28.165Z,81.60
2017-11-11T21:52:54.673Z,77.50
2017-11-11T21:55:21.010Z,80.00
2017-11-11T21:57:48.363Z,76.87
2017-11-11T22:00:14.813Z,77.60
2017-11-11T22:02:41.336Z,80.97
2017-11-11T22:05:07.760Z,81.63
2017-11-11T22:07:34.812Z,86.93
2017-11-11T22:10:01.937Z,80.27
2017-11-11T22:12:30.243Z,85.40
2017-11-11T22:14:57.208Z,108.67
2017-11-11T22:17:24.367Z,111.97
2017-11-11T22:19:51.348Z,87.80
2017-11-11T22:22:18.301Z,99.47
2017-11-11T22:24:45.210Z,88.63
2017-11-11T22:27:12.337Z,86.53
2017-11-11T22:29:39.486Z,103.10
2017-11-11T22:32:06.631Z,93.53
2017-11-11T22:34:33.801Z,94.50
2017-11-11T22:37:00.943Z,92.30
2017-11-11T22:39:27.987Z,86.57
2017-11-11T22:41:54.938Z,68.90
2017-11-11T22:44:21.885Z,76.40
2017-11-11T22:46:49.036Z,73.30
2017-11-11T22:49:16.088Z,73.77
2017-11-11T22:51:43.133Z,73.77
2017-11-11T22:54:09.627Z,78.87
2017-11-11T22:56:36.101Z,77.80
2017-11-11T22:59:02.593Z,77.20
2017-11-11T23:01:28.968Z,91.40
2017-11-11T23:03:55.402Z,73.50
2017-11-11T23:06:21.844Z,80.57
2017-11-11T23:08:48.279Z,68.43
2017-11-11T23:11:14.705Z,72.90
2017-11-11T23:13:41.075Z,75.93
2017-11-11T23:16:08.332Z,68.83
2017-11-11T23:18:34.727Z,78.83
2017-11-11T23:21:01.171Z,73.60
2017-11-11T23:23:27.596Z,75.03
2017-11-11T23:25:53.929Z,76.60
2017-11-11T23:28:20.364Z,63.37
2017-11-11T23:30:46.696Z,47.63
2017-11-11T23:33:14.021Z,44.43
2017-11-11T23:35:40.469Z,49.27
2017-11-11T23:38:06.925Z,49.13
2017-11-11T23:40:33.358Z,49.63
2017-11-11T23:42:59.800Z,47.57
2017-11-11T23:45:26.235Z,43.43
2017-11-11T23:47:52.664Z,44.70
2017-11-11T23:50:19.915Z,41.80
2017-11-11T23:52:46.351Z,49.37
2017-11-11T23:55:12.790Z,38.57
2017-11-11T23:57:39.220Z,50.90
